Terminal Aerodrome Forecast
Issued by NWS

Home | Current Version | Previous Version | Text Only | Print | Product List | Glossary On
Versions: 1 2 3 4 5 6 7 8 9 10 11 12
000
FTUS45 KTWC 061743
TAFOLS
TAF
KOLS 061743Z 0618/0718 18016G26KT P6SM FEW100
     FM062000 21023G33KT P6SM SCT100
     FM070200 22013G22KT P6SM SCT090
     FM070700 18010KT P6SM SCT070 BKN110
     FM071100 VRB04KT P6SM SCT070 OVC120=

USA.gov is the U.S. government's official web portal to all federal, state and local government web resources and services.